sensor_id;sensor_type;location;lat;lon;timestamp;P1;durP1;ratioP1;P2;durP2;ratioP2
51194;SDS011;37259;49.972;19.850;2024-02-16T00:00:17;23.1;;;11.7;;
51194;SDS011;37259;49.972;19.850;2024-02-16T00:01:17;23.1;;;11.7;;
51194;SDS011;37259;49.972;19.850;2024-02-16T00:02:17;23.1;;;11.7;;
51194;SDS011;37259;49.972;19.850;2024-02-16T00:03:17;23.1;;;11.7;;
51194;SDS011;37259;49.972;19.850;2024-02-16T00:04:17;23.1;;;11.7;;
51194;SDS011;37259;49.972;19.850;2024-02-16T00:05:17;23.1;;;11.7;;
51194;SDS011;37259;49.972;19.850;2024-02-16T00:06:17;23.1;;;11.7;;
51194;SDS011;37259;49.972;19.850;2024-02-16T00:07:17;23.1;;;11.7;;
51194;SDS011;37259;49.972;19.850;2024-02-16T00:08:17;23.1;;;11.7;;
51194;SDS011;37259;49.972;19.850;2024-02-16T00:09:17;23.1;;;11.7;;
51194;SDS011;37259;49.972;19.850;2024-02-16T00:10:17;23.1;;;11.7;;
51194;SDS011;37259;49.972;19.850;2024-02-16T00:11:17;23.1;;;11.7;;
51194;SDS011;37259;49.972;19.850;2024-02-16T00:12:17;23.1;;;11.7;;
51194;SDS011;37259;49.972;19.850;2024-02-16T00:13:17;23.1;;;11.7;;
51194;SDS011;37259;49.972;19.850;2024-02-16T00:14:17;23.1;;;11.7;;
51194;SDS011;37259;49.972;19.850;2024-02-16T00:15:17;23.1;;;11.7;;
51194;SDS011;37259;49.972;19.850;2024-02-16T00:16:17;23.1;;;11.7;;
51194;SDS011;37259;49.972;19.850;2024-02-16T00:17:17;23.1;;;11.7;;
51194;SDS011;37259;49.972;19.850;2024-02-16T00:18:17;23.4;;;14.4;;
51194;SDS011;37259;49.972;19.850;2024-02-16T00:19:17;23.4;;;14.4;;
51194;SDS011;37259;49.972;19.850;2024-02-16T00:20:17;23.4;;;14.4;;
51194;SDS011;37259;49.972;19.850;2024-02-16T00:21:17;23.4;;;14.4;;
51194;SDS011;37259;49.972;19.850;2024-02-16T00:22:17;23.4;;;14.4;;
51194;SDS011;37259;49.972;19.850;2024-02-16T00:23:17;23.4;;;14.4;;
51194;SDS011;37259;49.972;19.850;2024-02-16T00:24:17;23.4;;;14.4;;
51194;SDS011;37259;49.972;19.850;2024-02-16T00:25:17;23.4;;;14.4;;
51194;SDS011;37259;49.972;19.850;2024-02-16T00:26:17;23.4;;;14.4;;
51194;SDS011;37259;49.972;19.850;2024-02-16T00:27:17;23.4;;;14.4;;
51194;SDS011;37259;49.972;19.850;2024-02-16T00:28:17;23.4;;;14.4;;
51194;SDS011;37259;49.972;19.850;2024-02-16T00:29:17;23.4;;;14.4;;
51194;SDS011;37259;49.972;19.850;2024-02-16T00:30:17;23.4;;;14.4;;
51194;SDS011;37259;49.972;19.850;2024-02-16T00:31:17;23.4;;;14.4;;
51194;SDS011;37259;49.972;19.850;2024-02-16T00:32:17;23.4;;;14.4;;
51194;SDS011;37259;49.972;19.850;2024-02-16T00:33:17;23.4;;;14.4;;
51194;SDS011;37259;49.972;19.850;2024-02-16T00:34:17;23.4;;;14.4;;
51194;SDS011;37259;49.972;19.850;2024-02-16T00:35:17;23.4;;;14.4;;
51194;SDS011;37259;49.972;19.850;2024-02-16T00:36:17;23.4;;;14.4;;
51194;SDS011;37259;49.972;19.850;2024-02-16T00:37:17;23.4;;;14.4;;
51194;SDS011;37259;49.972;19.850;2024-02-16T00:38:17;23.4;;;14.4;;
51194;SDS011;37259;49.972;19.850;2024-02-16T00:39:17;23.4;;;14.4;;
51194;SDS011;37259;49.972;19.850;2024-02-16T00:40:17;23.4;;;14.4;;
51194;SDS011;37259;49.972;19.850;2024-02-16T00:41:18;23.4;;;14.4;;
51194;SDS011;37259;49.972;19.850;2024-02-16T00:42:17;23.4;;;14.4;;
51194;SDS011;37259;49.972;19.850;2024-02-16T00:43:17;23.4;;;14.4;;
51194;SDS011;37259;49.972;19.850;2024-02-16T00:44:17;23.4;;;14.4;;
51194;SDS011;37259;49.972;19.850;2024-02-16T00:45:17;23.4;;;14.4;;
51194;SDS011;37259;49.972;19.850;2024-02-16T00:46:17;23.4;;;14.4;;
51194;SDS011;37259;49.972;19.850;2024-02-16T00:47:17;23.4;;;14.4;;
51194;SDS011;37259;49.972;19.850;2024-02-16T00:48:17;30.9;;;19.6;;
51194;SDS011;37259;49.972;19.850;2024-02-16T00:49:17;30.9;;;19.6;;
51194;SDS011;37259;49.972;19.850;2024-02-16T00:50:17;30.9;;;19.6;;
51194;SDS011;37259;49.972;19.850;2024-02-16T00:51:17;30.9;;;19.6;;
51194;SDS011;37259;49.972;19.850;2024-02-16T00:52:17;30.9;;;19.6;;
51194;SDS011;37259;49.972;19.850;2024-02-16T00:53:17;30.9;;;19.6;;
51194;SDS011;37259;49.972;19.850;2024-02-16T00:54:17;30.9;;;19.6;;
51194;SDS011;37259;49.972;19.850;2024-02-16T00:55:17;30.9;;;19.6;;
51194;SDS011;37259;49.972;19.850;2024-02-16T00:56:17;30.9;;;19.6;;
51194;SDS011;37259;49.972;19.850;2024-02-16T00:57:17;30.9;;;19.6;;
51194;SDS011;37259;49.972;19.850;2024-02-16T00:58:17;30.9;;;19.6;;
51194;SDS011;37259;49.972;19.850;2024-02-16T00:59:17;30.9;;;19.6;;
51194;SDS011;37259;49.972;19.850;2024-02-16T01:00:17;30.9;;;19.6;;
51194;SDS011;37259;49.972;19.850;2024-02-16T01:01:17;30.9;;;19.6;;
51194;SDS011;37259;49.972;19.850;2024-02-16T01:02:17;30.9;;;19.6;;
51194;SDS011;37259;49.972;19.850;2024-02-16T01:03:17;30.9;;;19.6;;
51194;SDS011;37259;49.972;19.850;2024-02-16T01:04:17;30.9;;;19.6;;
51194;SDS011;37259;49.972;19.850;2024-02-16T01:05:17;30.9;;;19.6;;
51194;SDS011;37259;49.972;19.850;2024-02-16T01:06:17;30.9;;;19.6;;
51194;SDS011;37259;49.972;19.850;2024-02-16T01:07:17;30.9;;;19.6;;
51194;SDS011;37259;49.972;19.850;2024-02-16T01:08:17;30.9;;;19.6;;
51194;SDS011;37259;49.972;19.850;2024-02-16T01:09:18;30.9;;;19.6;;
51194;SDS011;37259;49.972;19.850;2024-02-16T01:10:17;30.9;;;19.6;;
51194;SDS011;37259;49.972;19.850;2024-02-16T01:11:17;30.9;;;19.6;;
51194;SDS011;37259;49.972;19.850;2024-02-16T01:12:17;30.9;;;19.6;;
51194;SDS011;37259;49.972;19.850;2024-02-16T01:13:17;30.9;;;19.6;;
51194;SDS011;37259;49.972;19.850;2024-02-16T01:14:17;30.9;;;19.6;;
51194;SDS011;37259;49.972;19.850;2024-02-16T01:15:17;30.9;;;19.6;;
51194;SDS011;37259;49.972;19.850;2024-02-16T01:16:17;30.9;;;19.6;;
51194;SDS011;37259;49.972;19.850;2024-02-16T01:17:17;30.9;;;19.6;;
51194;SDS011;37259;49.972;19.850;2024-02-16T01:18:17;23.6;;;14.6;;
51194;SDS011;37259;49.972;19.850;2024-02-16T01:19:17;23.6;;;14.6;;
51194;SDS011;37259;49.972;19.850;2024-02-16T01:20:17;23.6;;;14.6;;
51194;SDS011;37259;49.972;19.850;2024-02-16T01:21:17;23.6;;;14.6;;
51194;SDS011;37259;49.972;19.850;2024-02-16T01:22:17;23.6;;;14.6;;
51194;SDS011;37259;49.972;19.850;2024-02-16T01:23:17;23.6;;;14.6;;
51194;SDS011;37259;49.972;19.850;2024-02-16T01:24:17;23.6;;;14.6;;
51194;SDS011;37259;49.972;19.850;2024-02-16T01:25:17;23.6;;;14.6;;
51194;SDS011;37259;49.972;19.850;2024-02-16T01:26:17;23.6;;;14.6;;
51194;SDS011;37259;49.972;19.850;2024-02-16T01:27:17;23.6;;;14.6;;
51194;SDS011;37259;49.972;19.850;2024-02-16T01:28:17;23.6;;;14.6;;
51194;SDS011;37259;49.972;19.850;2024-02-16T01:29:17;23.6;;;14.6;;
51194;SDS011;37259;49.972;19.850;2024-02-16T01:30:17;23.6;;;14.6;;
51194;SDS011;37259;49.972;19.850;2024-02-16T01:31:17;23.6;;;14.6;;
51194;SDS011;37259;49.972;19.850;2024-02-16T01:32:17;23.6;;;14.6;;
51194;SDS011;37259;49.972;19.850;2024-02-16T01:33:17;23.6;;;14.6;;
51194;SDS011;37259;49.972;19.850;2024-02-16T01:34:17;23.6;;;14.6;;
51194;SDS011;37259;49.972;19.850;2024-02-16T01:35:17;23.6;;;14.6;;
51194;SDS011;37259;49.972;19.850;2024-02-16T01:36:17;23.6;;;14.6;;
51194;SDS011;37259;49.972;19.850;2024-02-16T01:37:17;23.6;;;14.6;;
51194;SDS011;37259;49.972;19.850;2024-02-16T01:38:17;23.6;;;14.6;;
51194;SDS011;37259;49.972;19.850;2024-02-16T01:39:17;23.6;;;14.6;;
51194;SDS011;37259;49.972;19.850;2024-02-16T01:40:17;23.6;;;14.6;;
51194;SDS011;37259;49.972;19.850;2024-02-16T01:41:17;23.6;;;14.6;;
51194;SDS011;37259;49.972;19.850;2024-02-16T01:42:17;23.6;;;14.6;;
51194;SDS011;37259;49.972;19.850;2024-02-16T01:43:18;23.6;;;14.6;;
51194;SDS011;37259;49.972;19.850;2024-02-16T01:44:17;23.6;;;14.6;;
51194;SDS011;37259;49.972;19.850;2024-02-16T01:45:17;23.6;;;14.6;;
51194;SDS011;37259;49.972;19.850;2024-02-16T01:46:17;23.6;;;14.6;;
51194;SDS011;37259;49.972;19.850;2024-02-16T01:47:17;23.6;;;14.6;;
51194;SDS011;37259;49.972;19.850;2024-02-16T01:48:17;23.2;;;14;;
51194;SDS011;37259;49.972;19.850;2024-02-16T01:49:17;23.2;;;14;;
51194;SDS011;37259;49.972;19.850;2024-02-16T01:50:18;23.2;;;14;;
51194;SDS011;37259;49.972;19.850;2024-02-16T01:51:17;23.2;;;14;;
51194;SDS011;37259;49.972;19.850;2024-02-16T01:52:17;23.2;;;14;;
51194;SDS011;37259;49.972;19.850;2024-02-16T01:53:17;23.2;;;14;;
51194;SDS011;37259;49.972;19.850;2024-02-16T01:54:17;23.2;;;14;;
51194;SDS011;37259;49.972;19.850;2024-02-16T01:55:17;23.2;;;14;;
51194;SDS011;37259;49.972;19.850;2024-02-16T01:56:17;23.2;;;14;;
51194;SDS011;37259;49.972;19.850;2024-02-16T01:57:17;23.2;;;14;;
51194;SDS011;37259;49.972;19.850;2024-02-16T01:58:17;23.2;;;14;;
51194;SDS011;37259;49.972;19.850;2024-02-16T01:59:17;23.2;;;14;;
51194;SDS011;37259;49.972;19.850;2024-02-16T02:00:17;23.2;;;14;;
51194;SDS011;37259;49.972;19.850;2024-02-16T02:01:17;23.2;;;14;;
51194;SDS011;37259;49.972;19.850;2024-02-16T02:02:17;23.2;;;14;;
51194;SDS011;37259;49.972;19.850;2024-02-16T02:03:17;23.2;;;14;;
51194;SDS011;37259;49.972;19.850;2024-02-16T02:04:17;23.2;;;14;;
51194;SDS011;37259;49.972;19.850;2024-02-16T02:05:17;23.2;;;14;;
51194;SDS011;37259;49.972;19.850;2024-02-16T02:06:17;23.2;;;14;;
51194;SDS011;37259;49.972;19.850;2024-02-16T02:07:18;23.2;;;14;;
51194;SDS011;37259;49.972;19.850;2024-02-16T02:08:17;23.2;;;14;;
51194;SDS011;37259;49.972;19.850;2024-02-16T02:09:17;23.2;;;14;;
51194;SDS011;37259;49.972;19.850;2024-02-16T02:10:17;23.2;;;14;;
51194;SDS011;37259;49.972;19.850;2024-02-16T02:11:17;23.2;;;14;;
51194;SDS011;37259;49.972;19.850;2024-02-16T02:12:17;23.2;;;14;;
51194;SDS011;37259;49.972;19.850;2024-02-16T02:13:17;23.2;;;14;;
51194;SDS011;37259;49.972;19.850;2024-02-16T02:14:17;23.2;;;14;;
51194;SDS011;37259;49.972;19.850;2024-02-16T02:15:17;23.2;;;14;;
51194;SDS011;37259;49.972;19.850;2024-02-16T02:16:17;23.2;;;14;;
51194;SDS011;37259;49.972;19.850;2024-02-16T02:17:17;23.2;;;14;;
51194;SDS011;37259;49.972;19.850;2024-02-16T02:18:17;22.4;;;13.7;;
51194;SDS011;37259;49.972;19.850;2024-02-16T02:19:17;22.4;;;13.7;;
51194;SDS011;37259;49.972;19.850;2024-02-16T02:20:17;22.4;;;13.7;;
51194;SDS011;37259;49.972;19.850;2024-02-16T02:21:17;22.4;;;13.7;;
51194;SDS011;37259;49.972;19.850;2024-02-16T02:22:17;22.4;;;13.7;;
51194;SDS011;37259;49.972;19.850;2024-02-16T02:23:17;22.4;;;13.7;;
51194;SDS011;37259;49.972;19.850;2024-02-16T02:24:17;22.4;;;13.7;;
51194;SDS011;37259;49.972;19.850;2024-02-16T02:25:17;22.4;;;13.7;;
51194;SDS011;37259;49.972;19.850;2024-02-16T02:26:17;22.4;;;13.7;;
51194;SDS011;37259;49.972;19.850;2024-02-16T02:27:17;22.4;;;13.7;;
51194;SDS011;37259;49.972;19.850;2024-02-16T02:28:17;22.4;;;13.7;;
51194;SDS011;37259;49.972;19.850;2024-02-16T02:29:17;22.4;;;13.7;;
51194;SDS011;37259;49.972;19.850;2024-02-16T02:30:17;22.4;;;13.7;;
51194;SDS011;37259;49.972;19.850;2024-02-16T02:31:17;22.4;;;13.7;;
51194;SDS011;37259;49.972;19.850;2024-02-16T02:32:17;22.4;;;13.7;;
51194;SDS011;37259;49.972;19.850;2024-02-16T02:33:17;22.4;;;13.7;;
51194;SDS011;37259;49.972;19.850;2024-02-16T02:34:17;22.4;;;13.7;;
51194;SDS011;37259;49.972;19.850;2024-02-16T02:35:17;22.4;;;13.7;;
51194;SDS011;37259;49.972;19.850;2024-02-16T02:36:17;22.4;;;13.7;;
51194;SDS011;37259;49.972;19.850;2024-02-16T02:37:17;22.4;;;13.7;;
51194;SDS011;37259;49.972;19.850;2024-02-16T02:38:17;22.4;;;13.7;;
51194;SDS011;37259;49.972;19.850;2024-02-16T02:39:17;22.4;;;13.7;;
51194;SDS011;37259;49.972;19.850;2024-02-16T02:40:17;22.4;;;13.7;;
51194;SDS011;37259;49.972;19.850;2024-02-16T02:41:17;22.4;;;13.7;;
51194;SDS011;37259;49.972;19.850;2024-02-16T02:42:17;22.4;;;13.7;;
51194;SDS011;37259;49.972;19.850;2024-02-16T02:43:17;22.4;;;13.7;;
51194;SDS011;37259;49.972;19.850;2024-02-16T02:44:17;22.4;;;13.7;;
51194;SDS011;37259;49.972;19.850;2024-02-16T02:45:17;22.4;;;13.7;;
51194;SDS011;37259;49.972;19.850;2024-02-16T02:46:17;22.4;;;13.7;;
51194;SDS011;37259;49.972;19.850;2024-02-16T02:47:17;22.4;;;13.7;;
51194;SDS011;37259;49.972;19.850;2024-02-16T02:48:17;20.7;;;10.7;;
51194;SDS011;37259;49.972;19.850;2024-02-16T02:49:17;20.7;;;10.7;;
51194;SDS011;37259;49.972;19.850;2024-02-16T02:50:17;20.7;;;10.7;;
51194;SDS011;37259;49.972;19.850;2024-02-16T02:51:17;20.7;;;10.7;;
51194;SDS011;37259;49.972;19.850;2024-02-16T02:52:17;20.7;;;10.7;;
51194;SDS011;37259;49.972;19.850;2024-02-16T02:53:17;20.7;;;10.7;;
51194;SDS011;37259;49.972;19.850;2024-02-16T02:54:17;20.7;;;10.7;;
51194;SDS011;37259;49.972;19.850;2024-02-16T02:55:17;20.7;;;10.7;;
51194;SDS011;37259;49.972;19.850;2024-02-16T02:56:17;20.7;;;10.7;;
51194;SDS011;37259;49.972;19.850;2024-02-16T02:57:17;20.7;;;10.7;;
51194;SDS011;37259;49.972;19.850;2024-02-16T02:58:18;20.7;;;10.7;;
51194;SDS011;37259;49.972;19.850;2024-02-16T02:59:17;20.7;;;10.7;;
51194;SDS011;37259;49.972;19.850;2024-02-16T03:00:17;20.7;;;10.7;;
51194;SDS011;37259;49.972;19.850;2024-02-16T03:01:17;20.7;;;10.7;;
51194;SDS011;37259;49.972;19.850;2024-02-16T03:02:17;20.7;;;10.7;;
51194;SDS011;37259;49.972;19.850;2024-02-16T03:03:17;20.7;;;10.7;;
51194;SDS011;37259;49.972;19.850;2024-02-16T03:04:17;20.7;;;10.7;;
51194;SDS011;37259;49.972;19.850;2024-02-16T03:05:17;20.7;;;10.7;;
51194;SDS011;37259;49.972;19.850;2024-02-16T03:06:17;20.7;;;10.7;;
51194;SDS011;37259;49.972;19.850;2024-02-16T03:07:17;20.7;;;10.7;;
51194;SDS011;37259;49.972;19.850;2024-02-16T03:08:17;20.7;;;10.7;;
51194;SDS011;37259;49.972;19.850;2024-02-16T03:09:17;20.7;;;10.7;;
51194;SDS011;37259;49.972;19.850;2024-02-16T03:10:17;20.7;;;10.7;;
51194;SDS011;37259;49.972;19.850;2024-02-16T03:11:17;20.7;;;10.7;;
51194;SDS011;37259;49.972;19.850;2024-02-16T03:12:17;20.7;;;10.7;;
51194;SDS011;37259;49.972;19.850;2024-02-16T03:13:17;20.7;;;10.7;;
51194;SDS011;37259;49.972;19.850;2024-02-16T03:14:17;20.7;;;10.7;;
51194;SDS011;37259;49.972;19.850;2024-02-16T03:15:17;20.7;;;10.7;;
51194;SDS011;37259;49.972;19.850;2024-02-16T03:16:17;20.7;;;10.7;;
51194;SDS011;37259;49.972;19.850;2024-02-16T03:17:17;20.7;;;10.7;;
51194;SDS011;37259;49.972;19.850;2024-02-16T03:18:17;22.4;;;12.6;;
51194;SDS011;37259;49.972;19.850;2024-02-16T03:19:17;22.4;;;12.6;;
51194;SDS011;37259;49.972;19.850;2024-02-16T03:20:17;22.4;;;12.6;;
51194;SDS011;37259;49.972;19.850;2024-02-16T03:21:17;22.4;;;12.6;;
51194;SDS011;37259;49.972;19.850;2024-02-16T03:22:17;22.4;;;12.6;;
51194;SDS011;37259;49.972;19.850;2024-02-16T03:23:17;22.4;;;12.6;;
51194;SDS011;37259;49.972;19.850;2024-02-16T03:24:17;22.4;;;12.6;;
51194;SDS011;37259;49.972;19.850;2024-02-16T03:25:17;22.4;;;12.6;;
51194;SDS011;37259;49.972;19.850;2024-02-16T03:26:18;22.4;;;12.6;;
51194;SDS011;37259;49.972;19.850;2024-02-16T03:27:17;22.4;;;12.6;;
51194;SDS011;37259;49.972;19.850;2024-02-16T03:28:17;22.4;;;12.6;;
51194;SDS011;37259;49.972;19.850;2024-02-16T03:29:17;22.4;;;12.6;;
51194;SDS011;37259;49.972;19.850;2024-02-16T03:30:17;22.4;;;12.6;;
51194;SDS011;37259;49.972;19.850;2024-02-16T03:31:17;22.4;;;12.6;;
51194;SDS011;37259;49.972;19.850;2024-02-16T03:32:17;22.4;;;12.6;;
51194;SDS011;37259;49.972;19.850;2024-02-16T03:33:17;22.4;;;12.6;;
51194;SDS011;37259;49.972;19.850;2024-02-16T03:34:17;22.4;;;12.6;;
51194;SDS011;37259;49.972;19.850;2024-02-16T03:35:17;22.4;;;12.6;;
51194;SDS011;37259;49.972;19.850;2024-02-16T03:36:17;22.4;;;12.6;;
51194;SDS011;37259;49.972;19.850;2024-02-16T03:37:17;22.4;;;12.6;;
51194;SDS011;37259;49.972;19.850;2024-02-16T03:38:17;22.4;;;12.6;;
51194;SDS011;37259;49.972;19.850;2024-02-16T03:39:17;22.4;;;12.6;;
51194;SDS011;37259;49.972;19.850;2024-02-16T03:40:17;22.4;;;12.6;;
51194;SDS011;37259;49.972;19.850;2024-02-16T03:41:21;22.4;;;12.6;;
51194;SDS011;37259;49.972;19.850;2024-02-16T03:42:17;22.4;;;12.6;;
51194;SDS011;37259;49.972;19.850;2024-02-16T03:43:17;22.4;;;12.6;;
51194;SDS011;37259;49.972;19.850;2024-02-16T03:44:17;22.4;;;12.6;;
51194;SDS011;37259;49.972;19.850;2024-02-16T03:45:17;22.4;;;12.6;;
51194;SDS011;37259;49.972;19.850;2024-02-16T03:46:17;22.4;;;12.6;;
51194;SDS011;37259;49.972;19.850;2024-02-16T03:47:17;22.4;;;12.6;;
51194;SDS011;37259;49.972;19.850;2024-02-16T03:48:17;22.3;;;12.6;;
51194;SDS011;37259;49.972;19.850;2024-02-16T03:49:17;22.3;;;12.6;;
51194;SDS011;37259;49.972;19.850;2024-02-16T03:50:17;22.3;;;12.6;;
51194;SDS011;37259;49.972;19.850;2024-02-16T03:51:17;22.3;;;12.6;;
51194;SDS011;37259;49.972;19.850;2024-02-16T03:52:17;22.3;;;12.6;;
51194;SDS011;37259;49.972;19.850;2024-02-16T03:53:17;22.3;;;12.6;;
51194;SDS011;37259;49.972;19.850;2024-02-16T03:54:17;22.3;;;12.6;;
51194;SDS011;37259;49.972;19.850;2024-02-16T03:55:17;22.3;;;12.6;;
51194;SDS011;37259;49.972;19.850;2024-02-16T03:56:18;22.3;;;12.6;;
51194;SDS011;37259;49.972;19.850;2024-02-16T03:57:17;22.3;;;12.6;;
51194;SDS011;37259;49.972;19.850;2024-02-16T03:58:17;22.3;;;12.6;;
51194;SDS011;37259;49.972;19.850;2024-02-16T03:59:17;22.3;;;12.6;;
51194;SDS011;37259;49.972;19.850;2024-02-16T04:00:17;22.3;;;12.6;;
51194;SDS011;37259;49.972;19.850;2024-02-16T04:01:17;22.3;;;12.6;;
51194;SDS011;37259;49.972;19.850;2024-02-16T04:02:17;22.3;;;12.6;;
51194;SDS011;37259;49.972;19.850;2024-02-16T04:03:17;22.3;;;12.6;;
51194;SDS011;37259;49.972;19.850;2024-02-16T04:04:17;22.3;;;12.6;;
51194;SDS011;37259;49.972;19.850;2024-02-16T04:05:17;22.3;;;12.6;;
51194;SDS011;37259;49.972;19.850;2024-02-16T04:06:17;22.3;;;12.6;;
51194;SDS011;37259;49.972;19.850;2024-02-16T04:07:17;22.3;;;12.6;;
51194;SDS011;37259;49.972;19.850;2024-02-16T04:08:17;22.3;;;12.6;;
51194;SDS011;37259;49.972;19.850;2024-02-16T04:09:17;22.3;;;12.6;;
51194;SDS011;37259;49.972;19.850;2024-02-16T04:10:17;22.3;;;12.6;;
51194;SDS011;37259;49.972;19.850;2024-02-16T04:11:17;22.3;;;12.6;;
51194;SDS011;37259;49.972;19.850;2024-02-16T04:12:17;22.3;;;12.6;;
51194;SDS011;37259;49.972;19.850;2024-02-16T04:13:17;22.3;;;12.6;;
51194;SDS011;37259;49.972;19.850;2024-02-16T04:14:17;22.3;;;12.6;;
51194;SDS011;37259;49.972;19.850;2024-02-16T04:15:17;22.3;;;12.6;;
51194;SDS011;37259;49.972;19.850;2024-02-16T04:16:17;22.3;;;12.6;;
51194;SDS011;37259;49.972;19.850;2024-02-16T04:17:17;19.7;;;11.9;;
51194;SDS011;37259;49.972;19.850;2024-02-16T04:18:17;19.7;;;11.9;;
51194;SDS011;37259;49.972;19.850;2024-02-16T04:19:17;19.7;;;11.9;;
51194;SDS011;37259;49.972;19.850;2024-02-16T04:20:18;19.7;;;11.9;;
51194;SDS011;37259;49.972;19.850;2024-02-16T04:21:17;19.7;;;11.9;;
51194;SDS011;37259;49.972;19.850;2024-02-16T04:22:17;19.7;;;11.9;;
51194;SDS011;37259;49.972;19.850;2024-02-16T04:23:17;19.7;;;11.9;;
51194;SDS011;37259;49.972;19.850;2024-02-16T04:24:17;19.7;;;11.9;;
51194;SDS011;37259;49.972;19.850;2024-02-16T04:25:17;19.7;;;11.9;;
51194;SDS011;37259;49.972;19.850;2024-02-16T04:26:17;19.7;;;11.9;;
51194;SDS011;37259;49.972;19.850;2024-02-16T04:27:17;19.7;;;11.9;;
51194;SDS011;37259;49.972;19.850;2024-02-16T04:28:17;19.7;;;11.9;;
51194;SDS011;37259;49.972;19.850;2024-02-16T04:29:17;19.7;;;11.9;;
51194;SDS011;37259;49.972;19.850;2024-02-16T04:30:17;19.7;;;11.9;;
51194;SDS011;37259;49.972;19.850;2024-02-16T04:31:17;19.7;;;11.9;;
51194;SDS011;37259;49.972;19.850;2024-02-16T04:32:17;19.7;;;11.9;;
51194;SDS011;37259;49.972;19.850;2024-02-16T04:33:17;19.7;;;11.9;;
51194;SDS011;37259;49.972;19.850;2024-02-16T04:34:17;19.7;;;11.9;;
51194;SDS011;37259;49.972;19.850;2024-02-16T04:35:17;19.7;;;11.9;;
51194;SDS011;37259;49.972;19.850;2024-02-16T04:36:17;19.7;;;11.9;;
51194;SDS011;37259;49.972;19.850;2024-02-16T04:37:17;19.7;;;11.9;;
51194;SDS011;37259;49.972;19.850;2024-02-16T04:38:17;19.7;;;11.9;;
51194;SDS011;37259;49.972;19.850;2024-02-16T04:39:17;19.7;;;11.9;;
51194;SDS011;37259;49.972;19.850;2024-02-16T04:40:17;19.7;;;11.9;;
51194;SDS011;37259;49.972;19.850;2024-02-16T04:41:19;19.7;;;11.9;;
51194;SDS011;37259;49.972;19.850;2024-02-16T04:42:17;19.7;;;11.9;;
51194;SDS011;37259;49.972;19.850;2024-02-16T04:43:17;19.7;;;11.9;;
51194;SDS011;37259;49.972;19.850;2024-02-16T04:44:20;19.7;;;11.9;;
51194;SDS011;37259;49.972;19.850;2024-02-16T04:45:17;19.7;;;11.9;;
51194;SDS011;37259;49.972;19.850;2024-02-16T04:46:17;19.7;;;11.9;;
51194;SDS011;37259;49.972;19.850;2024-02-16T04:47:17;20.6;;;13.1;;
51194;SDS011;37259;49.972;19.850;2024-02-16T04:48:17;20.6;;;13.1;;
51194;SDS011;37259;49.972;19.850;2024-02-16T04:49:17;20.6;;;13.1;;
51194;SDS011;37259;49.972;19.850;2024-02-16T04:50:17;20.6;;;13.1;;
51194;SDS011;37259;49.972;19.850;2024-02-16T04:51:17;20.6;;;13.1;;
51194;SDS011;37259;49.972;19.850;2024-02-16T04:52:17;20.6;;;13.1;;
51194;SDS011;37259;49.972;19.850;2024-02-16T04:53:17;20.6;;;13.1;;
51194;SDS011;37259;49.972;19.850;2024-02-16T04:54:17;20.6;;;13.1;;
51194;SDS011;37259;49.972;19.850;2024-02-16T04:55:17;20.6;;;13.1;;
51194;SDS011;37259;49.972;19.850;2024-02-16T04:56:17;20.6;;;13.1;;
51194;SDS011;37259;49.972;19.850;2024-02-16T04:57:17;20.6;;;13.1;;
51194;SDS011;37259;49.972;19.850;2024-02-16T04:58:17;20.6;;;13.1;;
51194;SDS011;37259;49.972;19.850;2024-02-16T04:59:17;20.6;;;13.1;;
51194;SDS011;37259;49.972;19.850;2024-02-16T05:00:17;20.6;;;13.1;;
51194;SDS011;37259;49.972;19.850;2024-02-16T05:01:17;20.6;;;13.1;;
51194;SDS011;37259;49.972;19.850;2024-02-16T05:02:17;20.6;;;13.1;;
51194;SDS011;37259;49.972;19.850;2024-02-16T05:03:17;20.6;;;13.1;;
51194;SDS011;37259;49.972;19.850;2024-02-16T05:04:17;20.6;;;13.1;;
51194;SDS011;37259;49.972;19.850;2024-02-16T05:05:17;20.6;;;13.1;;
51194;SDS011;37259;49.972;19.850;2024-02-16T05:06:17;20.6;;;13.1;;
51194;SDS011;37259;49.972;19.850;2024-02-16T05:07:17;20.6;;;13.1;;
51194;SDS011;37259;49.972;19.850;2024-02-16T05:08:17;20.6;;;13.1;;
51194;SDS011;37259;49.972;19.850;2024-02-16T05:09:17;20.6;;;13.1;;
51194;SDS011;37259;49.972;19.850;2024-02-16T05:10:17;20.6;;;13.1;;
51194;SDS011;37259;49.972;19.850;2024-02-16T05:11:17;20.6;;;13.1;;
51194;SDS011;37259;49.972;19.850;2024-02-16T05:12:17;20.6;;;13.1;;
51194;SDS011;37259;49.972;19.850;2024-02-16T05:13:17;20.6;;;13.1;;
51194;SDS011;37259;49.972;19.850;2024-02-16T05:14:17;20.6;;;13.1;;
51194;SDS011;37259;49.972;19.850;2024-02-16T05:15:17;20.6;;;13.1;;
51194;SDS011;37259;49.972;19.850;2024-02-16T05:16:17;20.6;;;13.1;;
51194;SDS011;37259;49.972;19.850;2024-02-16T05:17:18;21.2;;;12.8;;
51194;SDS011;37259;49.972;19.850;2024-02-16T05:18:17;21.2;;;12.8;;
51194;SDS011;37259;49.972;19.850;2024-02-16T05:19:17;21.2;;;12.8;;
51194;SDS011;37259;49.972;19.850;2024-02-16T05:20:17;21.2;;;12.8;;
51194;SDS011;37259;49.972;19.850;2024-02-16T05:21:17;21.2;;;12.8;;
51194;SDS011;37259;49.972;19.850;2024-02-16T05:22:17;21.2;;;12.8;;
51194;SDS011;37259;49.972;19.850;2024-02-16T05:23:17;21.2;;;12.8;;
51194;SDS011;37259;49.972;19.850;2024-02-16T05:24:17;21.2;;;12.8;;
51194;SDS011;37259;49.972;19.850;2024-02-16T05:25:17;21.2;;;12.8;;
51194;SDS011;37259;49.972;19.850;2024-02-16T05:26:17;21.2;;;12.8;;
51194;SDS011;37259;49.972;19.850;2024-02-16T05:27:17;21.2;;;12.8;;
51194;SDS011;37259;49.972;19.850;2024-02-16T05:28:17;21.2;;;12.8;;
51194;SDS011;37259;49.972;19.850;2024-02-16T05:29:17;21.2;;;12.8;;
51194;SDS011;37259;49.972;19.850;2024-02-16T05:30:17;21.2;;;12.8;;
51194;SDS011;37259;49.972;19.850;2024-02-16T05:31:17;21.2;;;12.8;;
51194;SDS011;37259;49.972;19.850;2024-02-16T05:32:17;21.2;;;12.8;;
51194;SDS011;37259;49.972;19.850;2024-02-16T05:33:17;21.2;;;12.8;;
51194;SDS011;37259;49.972;19.850;2024-02-16T05:34:17;21.2;;;12.8;;
51194;SDS011;37259;49.972;19.850;2024-02-16T05:35:17;21.2;;;12.8;;
51194;SDS011;37259;49.972;19.850;2024-02-16T05:36:17;21.2;;;12.8;;
51194;SDS011;37259;49.972;19.850;2024-02-16T05:37:17;21.2;;;12.8;;
51194;SDS011;37259;49.972;19.850;2024-02-16T05:38:17;21.2;;;12.8;;
51194;SDS011;37259;49.972;19.850;2024-02-16T05:39:17;21.2;;;12.8;;
51194;SDS011;37259;49.972;19.850;2024-02-16T05:40:17;21.2;;;12.8;;
51194;SDS011;37259;49.972;19.850;2024-02-16T05:41:17;21.2;;;12.8;;
51194;SDS011;37259;49.972;19.850;2024-02-16T05:42:17;21.2;;;12.8;;
51194;SDS011;37259;49.972;19.850;2024-02-16T05:43:17;21.2;;;12.8;;
51194;SDS011;37259;49.972;19.850;2024-02-16T05:44:17;21.2;;;12.8;;
51194;SDS011;37259;49.972;19.850;2024-02-16T05:45:17;21.2;;;12.8;;
51194;SDS011;37259;49.972;19.850;2024-02-16T05:46:17;21.2;;;12.8;;
51194;SDS011;37259;49.972;19.850;2024-02-16T05:47:17;17.6;;;10.5;;
51194;SDS011;37259;49.972;19.850;2024-02-16T05:48:17;17.6;;;10.5;;
51194;SDS011;37259;49.972;19.850;2024-02-16T05:49:17;17.6;;;10.5;;
51194;SDS011;37259;49.972;19.850;2024-02-16T05:50:17;17.6;;;10.5;;
51194;SDS011;37259;49.972;19.850;2024-02-16T05:51:17;17.6;;;10.5;;
51194;SDS011;37259;49.972;19.850;2024-02-16T05:52:17;17.6;;;10.5;;
51194;SDS011;37259;49.972;19.850;2024-02-16T05:53:17;17.6;;;10.5;;
51194;SDS011;37259;49.972;19.850;2024-02-16T05:54:17;17.6;;;10.5;;
51194;SDS011;37259;49.972;19.850;2024-02-16T05:55:17;17.6;;;10.5;;
51194;SDS011;37259;49.972;19.850;2024-02-16T05:56:17;17.6;;;10.5;;